Time;durP1;ratioP1;P1;durP2;ratioP2;P2;SDS_P1;SDS_P2;PMS_P1;PMS_P2;Temp;Humidity;BMP_temperature;BMP_pressure;BME280_temperature;BME280_humidity;BME280_pressure;Samples;Min_cycle;Max_cycle;Signal;HPM_P1;HPM_P2
2021/06/04 00:01:08;;;;;;;10.82;9.75;;;19.00;92.40;;;;;;4972463;28;20376;-76
2021/06/04 00:03:35;;;;;;;9.68;8.65;;;19.00;92.50;;;;;;4979508;28;20089;-76
2021/06/04 00:06:01;;;;;;;9.68;8.77;;;18.90;92.40;;;;;;4973999;28;20027;-76
2021/06/04 00:08:27;;;;;;;8.77;7.93;;;18.90;92.40;;;;;;4973124;28;20042;-76
2021/06/04 00:11:00;;;;;;;9.93;8.93;;;18.90;92.40;;;;;;4971595;28;20031;-76
2021/06/04 00:13:29;;;;;;;10.02;9.02;;;18.90;92.40;;;;;;4974750;28;20468;-75
2021/06/04 00:15:57;;;;;;;9.45;8.45;;;18.90;92.50;;;;;;4973558;28;20382;-76
2021/06/04 00:18:24;;;;;;;13.48;8.50;;;18.80;92.40;;;;;;4974041;28;20236;-75
2021/06/04 00:20:50;;;;;;;10.73;9.73;;;18.80;92.40;;;;;;4971988;28;20532;-76
2021/06/04 00:23:16;;;;;;;10.30;9.05;;;18.80;92.50;;;;;;4971549;28;20405;-75
2021/06/04 00:25:42;;;;;;;11.95;10.02;;;18.80;92.50;;;;;;4979774;28;20026;-74
2021/06/04 00:28:08;;;;;;;9.35;8.43;;;18.80;92.60;;;;;;4970269;28;20113;-75
2021/06/04 00:30:34;;;;;;;10.68;9.32;;;18.80;92.60;;;;;;4952869;28;20056;-75
2021/06/04 00:33:00;;;;;;;11.50;9.43;;;18.80;92.60;;;;;;4971607;28;20034;-76
2021/06/04 00:35:27;;;;;;;8.70;7.78;;;18.80;92.50;;;;;;4971145;28;20039;-75
2021/06/04 00:37:53;;;;;;;9.13;8.23;;;18.80;92.50;;;;;;4977067;28;20027;-75
2021/06/04 00:40:24;;;;;;;12.77;10.20;;;18.80;92.60;;;;;;4971785;28;20045;-76
2021/06/04 00:42:50;;;;;;;9.05;8.18;;;18.70;92.60;;;;;;4971346;28;20026;-75
2021/06/04 00:45:22;;;;;;;11.13;9.18;;;18.70;92.60;;;;;;4970053;28;20402;-76
2021/06/04 00:47:48;;;;;;;10.05;8.98;;;18.70;92.60;;;;;;4938475;28;20050;-76
2021/06/04 00:50:18;;;;;;;12.40;9.60;;;18.70;92.60;;;;;;4970672;28;20042;-75
2021/06/04 00:52:44;;;;;;;11.85;10.07;;;18.70;92.70;;;;;;4971893;28;20038;-75
2021/06/04 00:55:14;;;;;;;10.25;9.13;;;18.80;92.70;;;;;;4971383;28;20089;-76
2021/06/04 00:57:40;;;;;;;10.52;9.52;;;18.80;92.70;;;;;;4971034;28;20035;-76
2021/06/04 01:00:14;;;;;;;10.73;9.65;;;18.80;92.70;;;;;;4971388;28;20393;-76
2021/06/04 01:02:40;;;;;;;10.52;8.90;;;18.80;92.60;;;;;;4971648;28;20423;-76
2021/06/04 01:05:09;;;;;;;10.45;9.35;;;18.80;92.60;;;;;;4971162;28;20029;-76
2021/06/04 01:08:03;;;;;;;10.38;9.32;;;18.80;92.60;;;;;;4970961;28;20035;-75
2021/06/04 01:10:29;;;;;;;12.48;11.27;;;18.80;92.80;;;;;;4971702;28;20194;-76
2021/06/04 01:13:15;;;;;;;11.43;10.15;;;18.80;92.90;;;;;;4971171;28;20121;-76
2021/06/04 01:15:44;;;;;;;10.43;9.35;;;18.80;93.00;;;;;;4971315;28;20026;-76
2021/06/04 01:18:29;;;;;;;11.00;9.80;;;18.80;93.00;;;;;;4971299;28;20034;-76
2021/06/04 01:20:59;;;;;;;12.40;10.57;;;18.80;93.00;;;;;;4971374;28;20481;-75
2021/06/04 01:23:55;;;;;;;12.57;10.73;;;18.80;93.00;;;;;;4972048;28;20413;-76
2021/06/04 01:26:37;;;;;;;12.05;10.85;;;18.80;92.90;;;;;;4971428;28;20434;-76
2021/06/04 01:29:12;;;;;;;11.45;10.25;;;18.80;93.00;;;;;;4970035;28;20030;-76
2021/06/04 01:31:53;;;;;;;11.00;9.90;;;18.80;92.90;;;;;;4970882;28;20026;-76
2021/06/04 01:34:30;;;;;;;;;;;18.80;92.80;;;;;;4971617;28;20034;-76
2021/06/04 01:37:11;;;;;;;12.27;10.52;;;18.80;93.00;;;;;;4953935;28;20441;-75
2021/06/04 01:39:44;;;;;;;12.80;11.50;;;18.80;93.10;;;;;;4971086;28;20031;-76
2021/06/04 01:42:12;;;;;;;12.18;11.00;;;18.70;93.20;;;;;;4972030;28;20027;-77
2021/06/04 01:44:52;;;;;;;13.32;12.02;;;18.70;93.10;;;;;;4970525;28;20023;-76
2021/06/04 01:47:33;;;;;;;14.48;11.68;;;18.70;93.20;;;;;;4969678;28;20105;-76
2021/06/04 01:50:01;;;;;;;12.05;10.13;;;18.70;93.20;;;;;;4970207;28;20058;-76
2021/06/04 01:52:32;;;;;;;11.70;10.50;;;18.70;93.10;;;;;;4970144;28;20062;-76
2021/06/04 01:55:23;;;;;;;13.93;10.52;;;18.70;93.10;;;;;;4970306;28;20038;-76
2021/06/04 01:58:11;;;;;;;12.70;11.40;;;18.70;93.10;;;;;;4958165;28;20027;-76
2021/06/04 02:00:48;;;;;;;12.10;10.88;;;18.70;93.10;;;;;;4978052;28;20085;-76
2021/06/04 02:03:17;;;;;;;13.02;11.73;;;18.70;93.10;;;;;;4971243;28;20027;-76
2021/06/04 02:05:44;;;;;;;12.55;11.25;;;18.70;93.20;;;;;;4952327;28;20027;-76
2021/06/04 02:08:15;;;;;;;11.63;10.43;;;18.70;93.10;;;;;;4953152;28;20270;-76
2021/06/04 02:10:46;;;;;;;11.23;10.13;;;18.70;93.10;;;;;;4970040;28;20991;-76
2021/06/04 02:13:13;;;;;;;11.63;10.43;;;18.70;93.10;;;;;;4970930;28;20035;-76
2021/06/04 02:15:43;;;;;;;13.18;11.20;;;18.60;93.00;;;;;;4970149;28;20039;-75
2021/06/04 02:18:20;;;;;;;11.50;10.30;;;18.60;93.10;;;;;;4970810;28;20031;-76
2021/06/04 02:21:11;;;;;;;16.75;12.18;;;18.60;93.10;;;;;;4970054;28;20026;-75
2021/06/04 02:23:45;;;;;;;13.30;11.30;;;18.60;93.20;;;;;;4974847;28;20041;-77
2021/06/04 02:26:25;;;;;;;13.27;11.88;;;18.60;93.10;;;;;;4983643;28;20907;-77
2021/06/04 02:28:56;;;;;;;13.68;11.27;;;18.60;93.00;;;;;;4953337;28;20062;-76
2021/06/04 02:31:31;;;;;;;11.55;9.88;;;18.60;93.00;;;;;;4988530;28;20034;-76
2021/06/04 02:34:23;;;;;;;11.85;10.65;;;18.60;93.00;;;;;;4956744;28;20034;-76
2021/06/04 02:37:14;;;;;;;14.48;12.27;;;18.60;93.10;;;;;;4983200;28;20124;-74
2021/06/04 02:39:58;;;;;;;13.35;11.90;;;18.60;93.10;;;;;;4972652;28;20084;-76
2021/06/04 02:42:47;;;;;;;12.38;11.15;;;18.60;93.20;;;;;;4956541;28;20059;-76
2021/06/04 02:45:18;;;;;;;11.70;10.30;;;18.60;93.10;;;;;;4975018;28;20544;-75
2021/06/04 02:47:51;;;;;;;13.05;11.70;;;18.60;93.10;;;;;;4973698;28;20066;-76
2021/06/04 02:50:26;;;;;;;12.90;11.60;;;18.50;93.10;;;;;;4973404;28;20030;-76
2021/06/04 02:52:52;;;;;;;13.43;11.98;;;18.50;93.10;;;;;;4973987;28;20045;-76
2021/06/04 02:55:59;;;;;;;14.07;11.68;;;18.40;93.10;;;;;;4965104;28;20053;-76
2021/06/04 02:58:25;;;;;;;12.45;11.25;;;18.40;93.30;;;;;;4978343;28;20022;-76
2021/06/04 03:00:50;;;;;;;13.70;12.40;;;18.40;93.20;;;;;;4957380;28;20074;-76
2021/06/04 03:03:16;;;;;;;14.32;12.82;;;18.30;93.20;;;;;;4974692;28;20492;-77
2021/06/04 03:05:42;;;;;;;12.60;11.32;;;18.30;93.30;;;;;;4974450;28;20043;-76
2021/06/04 03:08:08;;;;;;;14.85;13.25;;;18.30;93.30;;;;;;4979567;28;20041;-75
2021/06/04 03:10:44;;;;;;;14.02;12.63;;;18.20;93.40;;;;;;4960612;28;20034;-77
2021/06/04 03:13:15;;;;;;;15.77;14.07;;;18.20;93.40;;;;;;4971160;28;20035;-77
2021/06/04 03:15:47;;;;;;;12.95;11.65;;;18.20;93.50;;;;;;4974294;28;20034;-76
2021/06/04 03:18:16;;;;;;;13.27;11.98;;;18.20;93.40;;;;;;4973231;28;20026;-75
2021/06/04 03:20:45;;;;;;;13.95;12.55;;;18.20;93.40;;;;;;4973612;28;20030;-77
2021/06/04 03:23:15;;;;;;;13.50;12.18;;;18.20;93.40;;;;;;4977058;28;20114;-76
2021/06/04 03:25:48;;;;;;;13.68;12.18;;;18.10;93.40;;;;;;4976165;28;20501;-76
2021/06/04 03:28:18;;;;;;;14.60;13.05;;;18.10;93.40;;;;;;4973793;28;20062;-75
2021/06/04 03:30:46;;;;;;;13.65;12.25;;;18.10;93.40;;;;;;4980859;28;20031;-76
2021/06/04 03:33:17;;;;;;;13.25;11.85;;;18.10;93.40;;;;;;4974686;28;20077;-76
2021/06/04 03:35:43;;;;;;;14.70;11.90;;;18.10;93.40;;;;;;4974242;28;20069;-76
2021/06/04 03:38:09;;;;;;;13.15;11.38;;;18.10;93.40;;;;;;4957213;28;20038;-76
2021/06/04 03:40:36;;;;;;;12.55;11.35;;;18.10;93.40;;;;;;4973403;28;20023;-76
2021/06/04 03:43:07;;;;;;;12.75;11.55;;;18.00;93.30;;;;;;4974216;28;20407;-76
2021/06/04 03:45:37;;;;;;;15.65;12.73;;;18.00;93.40;;;;;;4974166;28;20031;-76
2021/06/04 03:48:04;;;;;;;13.02;11.70;;;18.00;93.40;;;;;;4974650;28;20033;-76
2021/06/04 03:50:30;;;;;;;14.68;13.10;;;18.00;93.40;;;;;;4956248;28;20039;-76
2021/06/04 03:52:57;;;;;;;14.35;12.82;;;18.00;93.40;;;;;;4976727;28;20045;-76
2021/06/04 03:55:25;;;;;;;15.27;12.70;;;18.00;93.40;;;;;;4973662;28;20069;-76
2021/06/04 03:57:51;;;;;;;14.40;12.90;;;18.00;93.50;;;;;;4972916;28;20023;-76
2021/06/04 04:00:22;;;;;;;12.80;11.48;;;18.00;93.40;;;;;;4972332;28;20023;-76
2021/06/04 04:02:48;;;;;;;14.27;12.60;;;17.90;93.30;;;;;;4973493;28;20504;-75
2021/06/04 04:05:16;;;;;;;12.40;11.10;;;17.90;93.30;;;;;;4977459;28;20065;-76
2021/06/04 04:07:42;;;;;;;12.32;9.90;;;18.00;93.20;;;;;;4978829;28;20539;-76
2021/06/04 04:10:09;;;;;;;12.60;11.30;;;18.00;93.20;;;;;;4983141;28;20097;-77
2021/06/04 04:12:36;;;;;;;12.90;11.57;;;18.00;93.10;;;;;;4959342;28;20050;-77
2021/06/04 04:15:04;;;;;;;12.07;10.90;;;18.00;93.10;;;;;;4977421;28;20026;-76
2021/06/04 04:17:30;;;;;;;12.57;11.32;;;17.90;93.10;;;;;;4979360;28;20500;-76
2021/06/04 04:19:57;;;;;;;11.00;9.90;;;17.90;93.00;;;;;;4972168;28;20153;-75
2021/06/04 04:22:24;;;;;;;12.90;10.23;;;17.90;93.00;;;;;;4973327;28;20401;-77
2021/06/04 04:24:50;;;;;;;10.70;9.35;;;17.90;92.90;;;;;;4984477;28;20034;-75
2021/06/04 04:27:16;;;;;;;10.88;9.77;;;18.00;92.90;;;;;;4978115;28;20038;-77
2021/06/04 04:29:43;;;;;;;13.45;9.68;;;18.00;92.80;;;;;;4978879;28;20031;-76
2021/06/04 04:32:13;;;;;;;11.50;10.25;;;18.00;92.80;;;;;;4962594;28;20030;-76
2021/06/04 04:34:41;;;;;;;10.77;9.48;;;18.00;92.70;;;;;;4970817;28;20050;-75
2021/06/04 04:37:07;;;;;;;13.80;9.90;;;18.10;92.80;;;;;;4968386;28;20035;-76
2021/06/04 04:39:36;;;;;;;11.18;9.80;;;18.10;92.70;;;;;;4979695;28;20030;-75
2021/06/04 04:42:05;;;;;;;9.68;8.70;;;18.10;92.70;;;;;;4975233;28;20572;-75
2021/06/04 04:44:34;;;;;;;10.98;9.88;;;18.10;92.70;;;;;;4977089;28;20035;-76
2021/06/04 04:47:03;;;;;;;11.65;9.73;;;18.20;92.60;;;;;;4972877;28;20063;-76
2021/06/04 04:49:29;;;;;;;10.77;9.48;;;18.20;92.50;;;;;;4971021;28;20049;-76
2021/06/04 04:51:55;;;;;;;12.75;9.20;;;18.20;92.50;;;;;;4955329;28;20030;-76
2021/06/04 04:54:21;;;;;;;8.77;7.93;;;18.20;92.30;;;;;;4972925;28;20042;-76
2021/06/04 04:56:48;;;;;;;8.80;7.90;;;18.30;92.20;;;;;;4974900;28;20035;-75
2021/06/04 04:59:15;;;;;;;9.73;8.73;;;18.30;92.10;;;;;;4955545;28;20270;-76
2021/06/04 05:01:41;;;;;;;9.88;8.85;;;18.30;91.80;;;;;;4964259;28;20031;-75
2021/06/04 05:04:07;;;;;;;9.02;8.02;;;18.30;91.80;;;;;;4982690;28;20061;-75
2021/06/04 05:06:35;;;;;;;8.23;7.40;;;18.30;91.70;;;;;;4972046;28;20023;-75
2021/06/04 05:09:02;;;;;;;8.65;7.78;;;18.30;91.50;;;;;;4973232;28;20497;-75
2021/06/04 05:11:28;;;;;;;8.43;7.43;;;18.40;91.50;;;;;;4976890;28;20037;-75
2021/06/04 05:13:54;;;;;;;9.48;8.48;;;18.40;91.40;;;;;;4962190;28;20405;-77
2021/06/04 05:16:19;;;;;;;8.57;7.68;;;18.40;91.20;;;;;;4980339;28;20105;-75
2021/06/04 05:18:46;;;;;;;9.02;8.13;;;18.40;91.20;;;;;;4971546;28;20500;-75
2021/06/04 05:21:15;;;;;;;8.90;8.00;;;18.40;91.10;;;;;;4978156;28;20109;-76
2021/06/04 05:23:41;;;;;;;9.60;8.35;;;18.50;91.00;;;;;;4972086;28;20031;-76
2021/06/04 05:26:07;;;;;;;10.18;8.07;;;18.50;90.70;;;;;;4958607;28;20059;-79
2021/06/04 05:28:34;;;;;;;9.63;7.40;;;18.50;90.70;;;;;;4979200;28;20105;-76
2021/06/04 05:31:07;;;;;;;9.60;7.30;;;18.50;90.70;;;;;;4975103;28;20114;-77
2021/06/04 05:33:41;;;;;;;9.77;7.97;;;18.60;90.70;;;;;;4978622;28;20034;-78
2021/06/04 05:36:12;;;;;;;12.48;8.38;;;18.60;90.60;;;;;;4961945;28;20126;-76
2021/06/04 05:38:38;;;;;;;11.93;8.23;;;18.60;90.30;;;;;;4969843;28;20508;-76
2021/06/04 05:41:05;;;;;;;8.30;7.47;;;18.60;90.20;;;;;;4970297;28;20050;-75
2021/06/04 05:43:33;;;;;;;7.95;7.20;;;18.60;90.00;;;;;;4984500;28;20445;-76
2021/06/04 05:46:00;;;;;;;10.32;8.48;;;18.70;90.10;;;;;;4980278;28;20031;-76
2021/06/04 05:48:26;;;;;;;7.80;6.75;;;18.70;89.50;;;;;;4978943;28;20037;-77
2021/06/04 05:50:57;;;;;;;9.10;8.05;;;18.70;89.50;;;;;;4971225;28;20065;-76
2021/06/04 05:53:28;;;;;;;11.07;7.85;;;18.70;88.50;;;;;;4954659;28;20038;-76
2021/06/04 05:55:57;;;;;;;8.75;7.22;;;18.80;88.50;;;;;;4955582;28;20037;-75
2021/06/04 05:58:25;;;;;;;10.80;7.50;;;18.80;88.30;;;;;;4975544;28;20026;-77
2021/06/04 06:00:55;;;;;;;9.15;7.47;;;18.90;88.40;;;;;;4976941;28;20041;-75
2021/06/04 06:03:24;;;;;;;9.73;7.70;;;18.90;88.70;;;;;;4975584;28;20027;-77
2021/06/04 06:05:50;;;;;;;7.40;6.63;;;19.00;88.50;;;;;;4981715;28;20027;-77
2021/06/04 06:08:16;;;;;;;8.02;7.18;;;19.00;88.40;;;;;;4961049;28;20061;-78
2021/06/04 06:10:42;;;;;;;9.13;7.38;;;19.00;88.40;;;;;;4972663;28;20062;-76
2021/06/04 06:13:09;;;;;;;11.52;8.32;;;19.10;88.20;;;;;;4981634;28;20031;-77
2021/06/04 06:15:35;;;;;;;9.68;7.68;;;19.10;86.70;;;;;;4985425;28;20554;-79
2021/06/04 06:18:01;;;;;;;7.88;7.05;;;19.10;86.60;;;;;;4960736;28;20162;-77
2021/06/04 06:20:31;;;;;;;10.68;8.18;;;19.10;86.50;;;;;;4977775;28;20027;-76
2021/06/04 06:22:58;;;;;;;10.57;7.10;;;19.20;86.70;;;;;;4978562;28;20018;-77
2021/06/04 06:25:46;;;;;;;8.98;7.68;;;19.30;86.10;;;;;;4976776;28;20023;-77
2021/06/04 06:28:15;;;;;;;8.40;6.63;;;19.30;85.30;;;;;;4979581;28;20035;-74
2021/06/04 06:30:42;;;;;;;7.20;6.45;;;19.40;85.70;;;;;;4971428;28;20500;-73
2021/06/04 06:33:08;;;;;;;12.95;7.72;;;19.40;85.90;;;;;;4971725;28;20131;-75
2021/06/04 06:35:43;;;;;;;7.03;5.97;;;19.40;85.50;;;;;;4970748;28;20039;-77
2021/06/04 06:38:09;;;;;;;8.60;7.15;;;19.40;85.50;;;;;;4968149;28;20738;-77
2021/06/04 06:40:36;;;;;;;7.25;6.55;;;19.50;85.40;;;;;;4955043;28;20035;-75
2021/06/04 06:43:03;;;;;;;7.93;7.13;;;19.50;85.30;;;;;;4979510;28;20027;-75
2021/06/04 06:45:29;;;;;;;9.75;7.47;;;19.60;84.30;;;;;;4974609;28;20117;-74
2021/06/04 06:47:55;;;;;;;7.93;6.85;;;19.60;84.30;;;;;;4974782;28;20059;-74
2021/06/04 06:50:24;;;;;;;8.35;6.85;;;19.60;84.40;;;;;;4974652;28;20034;-73
2021/06/04 06:52:51;;;;;;;7.65;6.82;;;19.70;84.20;;;;;;4977091;28;20030;-74
2021/06/04 06:55:17;;;;;;;7.20;6.43;;;19.70;83.90;;;;;;4971688;28;20034;-75
2021/06/04 06:57:43;;;;;;;8.68;6.30;;;19.80;83.90;;;;;;4974250;28;20118;-74
2021/06/04 07:00:14;;;;;;;10.90;7.13;;;19.80;83.60;;;;;;4972214;28;20027;-74
2021/06/04 07:02:41;;;;;;;8.05;6.82;;;19.80;83.10;;;;;;4978005;28;20027;-76
2021/06/04 07:05:07;;;;;;;8.13;7.13;;;19.80;83.40;;;;;;4978720;28;20023;-76
2021/06/04 07:07:33;;;;;;;9.13;7.20;;;19.80;83.30;;;;;;4973698;28;20050;-76
2021/06/04 07:09:59;;;;;;;8.57;6.63;;;19.90;82.80;;;;;;4974960;28;20441;-77
2021/06/04 07:12:25;;;;;;;7.13;6.43;;;20.00;83.10;;;;;;4972676;28;20065;-77
2021/06/04 07:14:51;;;;;;;10.63;6.93;;;20.00;82.90;;;;;;4957170;28;20030;-76
2021/06/04 07:17:18;;;;;;;7.70;6.82;;;20.10;82.50;;;;;;4975304;28;20060;-77
2021/06/04 07:19:44;;;;;;;8.63;7.13;;;20.10;82.00;;;;;;4976135;28;20044;-77
2021/06/04 07:22:09;;;;;;;9.15;7.00;;;20.20;82.70;;;;;;4975680;28;20027;-77
2021/06/04 07:24:35;;;;;;;8.73;6.72;;;20.20;82.40;;;;;;4976013;28;20022;-77
2021/06/04 07:27:01;;;;;;;7.43;6.30;;;20.30;82.50;;;;;;4976069;28;20400;-77
2021/06/04 07:29:29;;;;;;;7.68;6.90;;;20.40;82.60;;;;;;4962837;28;20576;-78
2021/06/04 07:31:56;;;;;;;7.00;6.22;;;20.40;82.30;;;;;;4959024;28;20489;-77
2021/06/04 07:34:23;;;;;;;8.27;6.93;;;20.50;82.20;;;;;;4982845;28;20073;-77
2021/06/04 07:36:54;;;;;;;8.02;6.43;;;20.50;82.10;;;;;;4978003;28;20037;-78
2021/06/04 07:39:26;;;;;;;8.77;6.50;;;20.60;82.10;;;;;;4978185;28;20037;-77
2021/06/04 07:41:52;;;;;;;7.15;6.45;;;20.60;81.90;;;;;;4973701;28;20093;-76
2021/06/04 07:44:19;;;;;;;9.15;6.68;;;20.70;82.00;;;;;;4974549;28;20030;-76
2021/06/04 07:46:46;;;;;;;11.10;9.15;;;20.70;81.60;;;;;;4974915;28;20062;-76
2021/06/04 07:49:13;;;;;;;10.35;8.88;;;20.70;81.60;;;;;;4976466;28;20081;-75
2021/06/04 07:51:45;;;;;;;8.60;7.57;;;20.80;81.60;;;;;;4974552;28;20027;-76
2021/06/04 07:54:12;;;;;;;10.65;7.28;;;20.80;81.50;;;;;;4976397;28;20571;-77
2021/06/04 07:56:39;;;;;;;7.63;6.80;;;20.90;80.20;;;;;;4983774;28;20038;-76
2021/06/04 07:59:05;;;;;;;11.98;7.40;;;20.90;79.20;;;;;;4975209;28;20035;-77
2021/06/04 08:01:32;;;;;;;9.27;7.20;;;21.00;79.40;;;;;;4971781;28;20030;-76
2021/06/04 08:04:00;;;;;;;8.32;7.07;;;21.00;80.00;;;;;;4956580;28;20481;-76
2021/06/04 08:06:27;;;;;;;7.65;6.85;;;21.10;80.10;;;;;;4976131;28;20031;-76
2021/06/04 08:08:55;;;;;;;7.07;6.38;;;21.20;79.20;;;;;;4977427;28;20045;-77
2021/06/04 08:11:28;;;;;;;9.18;7.22;;;21.30;79.50;;;;;;4979062;28;20052;-77
2021/06/04 08:13:56;;;;;;;8.23;6.88;;;21.30;79.00;;;;;;4981031;28;20030;-76
2021/06/04 08:16:22;;;;;;;7.43;6.32;;;21.40;78.10;;;;;;4979917;28;20109;-76
2021/06/04 08:18:48;;;;;;;8.55;6.60;;;21.50;78.90;;;;;;4972275;28;20034;-76
2021/06/04 08:21:21;;;;;;;8.35;6.90;;;21.60;78.70;;;;;;4975210;28;20605;-76
2021/06/04 08:23:47;;;;;;;8.63;6.53;;;21.60;78.50;;;;;;4975408;28;20551;-76
2021/06/04 08:26:25;;;;;;;8.07;6.60;;;21.60;78.60;;;;;;4973348;28;20039;-75
2021/06/04 08:28:51;;;;;;;12.63;7.78;;;21.60;78.10;;;;;;4973086;28;20039;-77
2021/06/04 08:31:20;;;;;;;8.45;6.82;;;21.70;76.00;;;;;;4972584;28;20050;-78
2021/06/04 08:33:46;;;;;;;8.13;7.30;;;21.70;76.60;;;;;;4973055;28;20033;-78
2021/06/04 08:36:19;;;;;;;7.68;6.88;;;21.70;75.40;;;;;;4975649;28;20039;-75
2021/06/04 08:38:45;;;;;;;6.80;6.10;;;21.80;75.20;;;;;;4969139;28;20035;-75
2021/06/04 08:41:19;;;;;;;7.13;5.97;;;21.90;75.30;;;;;;4953215;28;20066;-75
2021/06/04 08:43:51;;;;;;;7.70;6.40;;;22.00;74.60;;;;;;4970506;28;20030;-75
2021/06/04 08:46:29;;;;;;;6.82;6.15;;;22.00;74.70;;;;;;4969903;28;21191;-74
2021/06/04 08:48:58;;;;;;;9.85;6.05;;;22.00;74.50;;;;;;4979925;28;20448;-77
2021/06/04 08:51:38;;;;;;;7.47;5.88;;;22.00;74.90;;;;;;4966983;28;20064;-75
2021/06/04 08:54:31;;;;;;;8.73;6.00;;;22.10;74.80;;;;;;4962415;28;20026;-75
2021/06/04 08:56:57;;;;;;;7.35;6.57;;;22.20;74.90;;;;;;4971348;28;20282;-75
2021/06/04 08:59:25;;;;;;;6.97;6.15;;;22.20;73.70;;;;;;4976705;28;20034;-75
2021/06/04 09:02:25;;;;;;;8.15;6.25;;;22.30;73.30;;;;;;4974269;28;20034;-74
2021/06/04 09:04:55;;;;;;;7.13;6.40;;;22.40;72.00;;;;;;4943110;28;20035;-75
2021/06/04 09:07:25;;;;;;;8.27;6.28;;;22.40;72.70;;;;;;4970652;28;20026;-75
2021/06/04 09:10:18;;;;;;;8.75;6.22;;;22.50;72.10;;;;;;4970105;28;20042;-75
2021/06/04 09:12:57;;;;;;;7.82;5.47;;;22.60;71.30;;;;;;4963175;28;20027;-75
2021/06/04 09:15:27;;;;;;;10.55;6.43;;;22.60;71.40;;;;;;4961357;28;20039;-75
2021/06/04 09:18:01;;;;;;;6.20;5.60;;;22.60;70.70;;;;;;4970628;28;20432;-75
2021/06/04 09:20:43;;;;;;;11.70;6.10;;;22.60;70.70;;;;;;4970434;28;20026;-76
2021/06/04 09:23:12;;;;;;;9.02;5.93;;;22.70;70.20;;;;;;4970590;28;20023;-75
2021/06/04 09:25:40;;;;;;;8.73;6.47;;;22.80;70.90;;;;;;4968396;28;20306;-75
2021/06/04 09:28:12;;;;;;;6.53;5.22;;;22.80;69.30;;;;;;4971535;28;20031;-75
2021/06/04 09:30:49;;;;;;;6.15;5.55;;;22.90;71.10;;;;;;4973644;28;20019;-74
2021/06/04 09:33:17;;;;;;;8.25;6.32;;;23.00;70.50;;;;;;4978307;28;20029;-75
2021/06/04 09:36:02;;;;;;;10.90;6.18;;;23.00;70.10;;;;;;4977265;28;20026;-75
2021/06/04 09:38:46;;;;;;;6.55;5.88;;;23.10;68.50;;;;;;4977656;28;20089;-76
2021/06/04 09:41:27;;;;;;;9.65;6.45;;;23.20;67.30;;;;;;4976192;28;20113;-75
2021/06/04 09:44:04;;;;;;;;;;;23.20;68.00;;;;;;4978492;28;21609;-76
2021/06/04 09:46:50;;;;;;;8.13;6.93;;;23.20;68.50;;;;;;4976716;28;19934;-74
2021/06/04 09:49:31;;;;;;;7.95;7.15;;;23.20;66.80;;;;;;4959296;28;20035;-76
2021/06/04 09:52:14;;;;;;;;;;;23.30;67.60;;;;;;4976499;28;20039;-74
2021/06/04 09:54:39;;;;;;;6.70;4.97;;;23.30;68.20;;;;;;4977275;28;19957;-75
2021/06/04 09:57:12;;;;;;;6.43;5.28;;;23.40;66.60;;;;;;4957751;28;20034;-74
2021/06/04 09:59:38;;;;;;;7.05;5.25;;;23.40;67.00;;;;;;4977161;28;20039;-75
2021/06/04 10:02:31;;;;;;;7.50;5.80;;;23.50;64.50;;;;;;4976406;28;20107;-76
2021/06/04 10:05:26;;;;;;;6.20;5.30;;;23.50;65.30;;;;;;4977731;28;20227;-76
2021/06/04 10:08:14;;;;;;;6.82;5.35;;;23.60;66.30;;;;;;4978255;28;20046;-75
2021/06/04 10:10:40;;;;;;;7.20;5.40;;;23.60;67.40;;;;;;4975003;28;20492;-75
2021/06/04 10:13:25;;;;;;;7.60;5.05;;;23.60;67.60;;;;;;4977503;28;20038;-76
2021/06/04 10:15:52;;;;;;;6.38;5.68;;;23.70;67.80;;;;;;4975347;28;20026;-78
2021/06/04 10:18:30;;;;;;;5.28;4.28;;;23.90;66.90;;;;;;4980657;28;20035;-78
2021/06/04 10:21:09;;;;;;;5.57;5.00;;;23.90;63.90;;;;;;4978827;28;20035;-78
2021/06/04 10:23:36;;;;;;;5.43;4.93;;;24.00;65.20;;;;;;4977981;28;20035;-76
2021/06/04 10:26:24;;;;;;;5.82;5.22;;;23.90;66.30;;;;;;4979654;28;20023;-80
2021/06/04 10:28:58;;;;;;;5.40;4.90;;;23.90;67.50;;;;;;4980164;28;20034;-76
2021/06/04 10:31:47;;;;;;;5.10;4.60;;;23.80;67.70;;;;;;4980865;28;20026;-75
2021/06/04 10:34:50;;;;;;;6.47;5.05;;;23.80;68.20;;;;;;4978385;28;20145;-77
2021/06/04 10:37:24;;;;;;;6.03;5.43;;;23.80;68.30;;;;;;4982399;28;20034;-76
2021/06/04 10:40:01;;;;;;;6.60;5.72;;;23.80;68.70;;;;;;4963826;28;20108;-76
2021/06/04 10:42:41;;;;;;;5.15;4.65;;;23.80;69.10;;;;;;4977083;28;20501;-76
2021/06/04 10:45:30;;;;;;;6.40;5.28;;;23.80;68.20;;;;;;4966638;28;20019;-74
2021/06/04 10:48:08;;;;;;;5.22;4.72;;;23.90;67.90;;;;;;4971978;28;20556;-77
2021/06/04 10:50:40;;;;;;;5.65;4.90;;;24.00;68.10;;;;;;4973190;28;20035;-76
2021/06/04 10:53:35;;;;;;;5.43;4.93;;;24.10;67.80;;;;;;4957649;28;20046;-76
2021/06/04 10:56:15;;;;;;;6.30;5.40;;;24.40;67.60;;;;;;4959915;28;20034;-78
2021/06/04 10:59:02;;;;;;;6.20;5.57;;;24.50;66.60;;;;;;4973112;28;20086;-77
2021/06/04 11:01:51;;;;;;;5.30;4.80;;;24.60;66.10;;;;;;4974477;28;20031;-77
2021/06/04 11:04:47;;;;;;;14.20;7.85;;;24.70;66.70;;;;;;4955761;28;20041;-73
2021/06/04 11:07:31;;;;;;;12.77;6.93;;;24.80;66.20;;;;;;4972894;28;20105;-76
2021/06/04 11:10:28;;;;;;;18.45;7.70;;;24.80;65.90;;;;;;4974684;28;20039;-75
2021/06/04 11:13:02;;;;;;;17.08;6.93;;;24.80;66.20;;;;;;4972755;28;20038;-75
2021/06/04 11:16:05;;;;;;;8.30;5.57;;;25.00;67.10;;;;;;4975348;28;20026;-76
2021/06/04 11:18:38;;;;;;;8.15;5.13;;;25.30;68.70;;;;;;4968836;28;20058;-72
2021/06/04 11:21:09;;;;;;;10.52;5.95;;;25.80;63.10;;;;;;4970141;28;20034;-74
2021/06/04 11:23:56;;;;;;;10.05;5.43;;;26.20;63.50;;;;;;4955093;28;20921;-76
2021/06/04 11:26:39;;;;;;;8.25;5.45;;;26.40;62.90;;;;;;4975082;28;20378;-75
2021/06/04 11:29:11;;;;;;;10.43;5.90;;;26.30;62.00;;;;;;4972972;28;20102;-76
2021/06/04 11:32:06;;;;;;;6.97;5.50;;;26.20;62.40;;;;;;4970307;28;20026;-74
2021/06/04 11:34:52;;;;;;;7.93;5.13;;;26.00;61.60;;;;;;4969521;28;20027;-76
2021/06/04 11:37:30;;;;;;;7.40;4.90;;;25.80;62.30;;;;;;4954663;28;20058;-74
2021/06/04 11:40:28;;;;;;;7.68;5.20;;;25.70;62.30;;;;;;4967730;28;20507;-74
2021/06/04 11:43:21;;;;;;;7.43;5.82;;;25.70;62.50;;;;;;4968933;28;20047;-73
2021/06/04 11:45:48;;;;;;;5.40;4.90;;;25.60;62.70;;;;;;4961226;28;20047;-72
2021/06/04 11:48:20;;;;;;;7.68;5.88;;;25.50;61.60;;;;;;4973695;28;20039;-72
2021/06/04 11:50:48;;;;;;;7.47;6.03;;;25.50;61.80;;;;;;4973207;28;20065;-75
2021/06/04 11:53:30;;;;;;;9.10;6.07;;;25.50;62.10;;;;;;4973957;28;20146;-75
2021/06/04 11:55:57;;;;;;;7.35;6.63;;;25.70;62.30;;;;;;4971714;28;20362;-76
2021/06/04 11:58:29;;;;;;;11.35;6.32;;;25.90;62.70;;;;;;4949926;28;20038;-75
2021/06/04 12:01:15;;;;;;;6.00;5.50;;;25.90;63.40;;;;;;4966780;28;20038;-72
2021/06/04 12:04:06;;;;;;;6.50;5.90;;;26.00;62.30;;;;;;4966232;28;20042;-71
2021/06/04 12:06:52;;;;;;;6.80;6.10;;;25.90;62.40;;;;;;4961857;28;20047;-74
2021/06/04 12:09:39;;;;;;;6.88;6.10;;;25.80;63.70;;;;;;4974204;28;20114;-77
2021/06/04 12:12:19;;;;;;;6.18;5.63;;;25.90;63.00;;;;;;4977272;28;20402;-74
2021/06/04 12:14:55;;;;;;;6.45;5.47;;;25.90;63.30;;;;;;4972344;28;20039;-74
2021/06/04 12:17:28;;;;;;;6.57;5.00;;;25.90;63.20;;;;;;4972669;28;20085;-75
2021/06/04 12:20:29;;;;;;;6.70;4.88;;;25.90;63.40;;;;;;4970830;28;20031;-75
2021/06/04 12:23:03;;;;;;;7.43;5.43;;;26.00;65.00;;;;;;4909254;29;20119;-74
2021/06/04 12:25:37;;;;;;;6.32;5.72;;;26.00;64.40;;;;;;4962936;28;20066;-75
2021/06/04 12:28:28;;;;;;;6.35;5.25;;;26.10;64.10;;;;;;4971857;28;20033;-76
2021/06/04 12:30:56;;;;;;;;;;;26.40;60.40;;;;;;4978087;28;20098;-75
2021/06/04 12:33:39;;;;;;;6.13;5.20;;;26.40;61.40;;;;;;4970436;28;19910;-75
2021/06/04 12:36:43;;;;;;;5.68;5.18;;;26.50;61.70;;;;;;4972555;28;20540;-75
2021/06/04 12:39:28;;;;;;;5.15;4.72;;;26.60;63.10;;;;;;4969981;28;20098;-75
2021/06/04 12:42:09;;;;;;;5.43;4.93;;;26.80;63.50;;;;;;4970864;28;20500;-75
2021/06/04 12:44:35;;;;;;;5.35;4.88;;;26.80;61.50;;;;;;4976049;28;20039;-75
2021/06/04 12:47:04;;;;;;;5.93;5.43;;;26.90;62.10;;;;;;4977121;28;20186;-75
2021/06/04 12:49:30;;;;;;;6.10;5.47;;;27.00;61.30;;;;;;4952767;28;20389;-75
2021/06/04 12:51:56;;;;;;;5.35;4.88;;;27.00;61.80;;;;;;4972395;28;20113;-75
2021/06/04 12:54:26;;;;;;;6.60;5.80;;;27.00;61.40;;;;;;4971457;28;20035;-75
2021/06/04 12:56:55;;;;;;;5.70;4.72;;;27.10;58.10;;;;;;4969337;28;20074;-75
2021/06/04 12:59:24;;;;;;;5.68;5.18;;;27.10;60.40;;;;;;4970890;28;20038;-75
2021/06/04 13:02:08;;;;;;;5.80;4.82;;;27.20;60.60;;;;;;4978366;28;20477;-78
2021/06/04 13:04:47;;;;;;;4.88;4.40;;;27.30;59.20;;;;;;4960752;28;20484;-76
2021/06/04 13:07:32;;;;;;;5.30;4.25;;;27.20;58.50;;;;;;4973191;28;20070;-76
2021/06/04 13:10:01;;;;;;;5.47;4.57;;;27.00;58.80;;;;;;4954459;28;20034;-76